Springdale, MT

5:48 AM MDT on October 23, 2014 (GMT -0600)
Mission | Change Station
CLOSE
Current Station
Airport
Location: Livingston,
Elevation: 4656 ft
Nearby Weather Stations

Elev 4656 ft 45.70 °N, 110.44 °W | Updated 55 minutes ago

Clear
Clear
54 °F
Feels Like 54 °F
N
23
Wind Variable Wind from SW
Gusts 39 mph

Today
High -- | Low -- °F
--% Chance of Precip.
Yesterday
High -- | Low -- °F
Precip. -- in
7:48 AM 6:21 PM
Waning Crescent, 0% visible
Pressure 29.85 in
Visibility 10.0 miles
Clouds Clear
Dew Point 25 °F
Humidity 33%
Rainfall 0.00 in
Snow Depth Not available.
UV 0 out of 12
Pollen 2.70 out of 12
Air Quality Not available.
Flu Activity No Activity
METAR KLVM 231053Z AUTO 23020G34KT 10SM CLR 12/M04 A2992 RMK AO2 PK WND 22034/1048 SLP108 T01221039

More Conditions Fewer Conditions

Pressure 29.85 in
Visibility 10.0 miles
Clouds Clear
Dew Point 25 °F
Humidity 33%
Rainfall 0.00 in
Snow Depth Not available.
UV 0 out of 12
Pollen 2.70 out of 12
Air Quality Not available.
Flu Activity No Activity
METAR KLVM 231053Z AUTO 23020G34KT 10SM CLR 12/M04 A2992 RMK AO2 PK WND 22034/1048 SLP108 T01221039

More Conditions Fewer Conditions

10-Day Weather Forecast

Almanac

Astronomy

Oct. 23, 2014 Rise Set
Actual Time 7:48 AM MDT 6:21 PM MDT
Civil Twilight 7:17 AM MDT 6:51 PM MDT
Nautical Twilight 6:43 AM MDT 7:26 PM MDT
Astronomical Twilight 6:08 AM MDT 8:00 PM MDT
Moon 7:30 AM MDT 6:24 PM MDT
Length of Visible Light 11h 33m
Length of Day
10h 32m
Tomorrow will be 3m 0s shorter.
Waning Crescent, 0% of the Moon is Illuminated
Today
Waning Crescent
Oct 23
New
Oct 30
First Quarter
Nov 6
Full
Nov 14
Last Quarter

Today's Extremes

State Highs State Lows

Community

WunderPhotos

Upload Photos

1,764,209 photos uploaded!

Nearby

Snow Depth

Station Depth Elevation
Placer Basin 0 in 8830 ft
South Fork Shields 1 in 8100 ft
Porcupine 0 in 6500 ft
Sacajawea 1 in 6550 ft
Monument Peak 0 in 8850 ft

Earthquake Activity

City Distance Mag. Time & Date
No recent earthquake activity has been reported nearby.
Minimum magnitude displayed is 2.5.

Coastal Water Temperatures

Place Temperature
No Stations Reporting

Nearby Weather Stations